WXM80 ListenWXM80 Stop

You find our weather info also at:

UK Metoffice

WeatherCloud

Weather Underground

Northeastern Weather Network

AWEKAS

Citizen Weather Observer Program (CWOP)

HAMweather, WeatherForYou, PWS Weather


Weather Underground History page Text

Daily Summary for March 29, 2017 Units:  English    Metric   Both
« Previous Day
Next Day »
Daily Weekly Monthly Yearly Custom
  High: Low: Average:
Temperature: 56.4 °F 39.9 °F 46.4 °F
Dew Point: 43.3 °F 29.6 °F 39 °F
Humidity: 99 % 54 % 77 %
Wind Speed: 9.4 mph 0.0 mph 3.7 mph
Wind Gust: 16.1 mph - -
Wind:- - SSW
Pressure: 30.21 in 29.89 in -
Precipitation: 0.00 in    
Historical Graphs
 
 
Tabular Data for March 29, 2017
Time Temperature Dew Point Pressure Wind Wind Speed Wind Gust Humidity Rainfall Rate (Hourly)
00:02 39.9 °F 39.4 °F 29.89 in NE 0.3 mph 1.2 mph 98 % 0.00 in
00:07 39.9 °F 39.4 °F 29.90 in Calm     98 % 0.00 in
00:12 39.9 °F 39.4 °F 29.89 in Calm     98 % 0.00 in
00:17 39.9 °F 39.4 °F 29.89 in Calm     98 % 0.00 in
00:22 40.0 °F 39.4 °F 29.90 in Calm     98 % 0.00 in
00:27 40.0 °F 39.5 °F 29.90 in Calm     98 % 0.00 in
00:32 40.0 °F 39.5 °F 29.89 in Calm     98 % 0.00 in
00:37 40.0 °F 39.5 °F 29.89 in Calm     98 % 0.00 in
00:42 39.9 °F 39.4 °F 29.89 in Calm     98 % 0.00 in
00:47 40.0 °F 39.5 °F 29.89 in Calm     98 % 0.00 in
00:52 40.0 °F 39.5 °F 29.89 in Calm     98 % 0.00 in
00:57 40.0 °F 39.5 °F 29.90 in Calm     98 % 0.00 in
01:02 40.0 °F 39.5 °F 29.90 in Calm   1.0 mph 98 % 0.00 in
01:04 40.0 °F 39.5 °F 29.90 in Calm     98 % 0.00 in
01:09 40.1 °F 39.6 °F 29.90 in Calm     98 % 0.00 in
01:14 40.2 °F 39.7 °F 29.90 in NNW 0.4 mph 2.3 mph 98 % 0.00 in
01:19 40.2 °F 39.7 °F 29.90 in Calm   1.2 mph 98 % 0.00 in
01:24 40.2 °F 39.7 °F 29.90 in NNW 0.9 mph 2.0 mph 98 % 0.00 in
01:30 40.2 °F 39.7 °F 29.90 in NNW 0.1 mph 2.3 mph 98 % 0.00 in
01:35 40.1 °F 39.6 °F 29.90 in NNW 0.6 mph 1.2 mph 98 % 0.00 in
01:40 40.1 °F 39.6 °F 29.89 in NNW 1.1 mph 2.3 mph 98 % 0.00 in
01:45 40.2 °F 39.7 °F 29.90 in NNW 0.8 mph 2.3 mph 98 % 0.00 in
01:50 40.2 °F 39.7 °F 29.90 in NW 2.7 mph 4.0 mph 98 % 0.00 in
01:55 40.3 °F 39.8 °F 29.89 in NW 0.3 mph 2.3 mph 98 % 0.00 in
02:00 40.4 °F 39.9 °F 29.90 in WNW 2.3 mph 3.5 mph 98 % 0.00 in
02:05 40.5 °F 40.0 °F 29.89 in WNW 2.2 mph 3.5 mph 98 % 0.00 in
02:10 40.5 °F 40.0 °F 29.89 in WNW 0.6 mph 3.5 mph 98 % 0.00 in
02:15 40.7 °F 40.2 °F 29.89 in WNW 0.6 mph 2.3 mph 98 % 0.00 in
02:20 40.9 °F 40.6 °F 29.90 in WNW 0.7 mph 3.5 mph 99 % 0.00 in
02:25 41.1 °F 40.8 °F 29.91 in WNW 1.5 mph 3.5 mph 99 % 0.00 in
02:30 41.3 °F 40.8 °F 29.91 in WNW 0.2 mph 2.3 mph 98 % 0.00 in
02:35 41.5 °F 41.0 °F 29.91 in WNW 0.1 mph 3.5 mph 98 % 0.00 in
02:40 41.5 °F 41.2 °F 29.91 in Calm     99 % 0.00 in
02:45 41.6 °F 41.3 °F 29.91 in WNW 0.8 mph 3.5 mph 99 % 0.00 in
02:50 41.7 °F 41.4 °F 29.91 in WNW 1.3 mph 2.3 mph 99 % 0.00 in
02:55 41.8 °F 41.5 °F 29.91 in WNW 2.3 mph 3.0 mph 99 % 0.00 in
03:00 41.8 °F 41.5 °F 29.91 in NW 1.1 mph 3.5 mph 99 % 0.00 in
03:06 41.9 °F 41.6 °F 29.91 in West 3.1 mph 4.6 mph 99 % 0.00 in
03:11 41.9 °F 41.6 °F 29.91 in WNW 3.0 mph 3.5 mph 99 % 0.00 in
03:16 42.0 °F 41.7 °F 29.91 in WNW 0.3 mph 2.3 mph 99 % 0.00 in
03:21 42.0 °F 41.7 °F 29.91 in WNW 1.5 mph 3.5 mph 99 % 0.00 in
03:26 42.0 °F 41.7 °F 29.91 in Calm   1.2 mph 99 % 0.00 in
03:31 42.1 °F 41.8 °F 29.91 in WNW 1.0 mph 3.0 mph 99 % 0.00 in
03:36 42.2 °F 41.9 °F 29.92 in WNW 1.1 mph 3.5 mph 99 % 0.00 in
03:41 42.3 °F 42.0 °F 29.91 in WNW 0.5 mph 2.3 mph 99 % 0.00 in
03:46 42.3 °F 42.0 °F 29.92 in WNW 1.7 mph 3.0 mph 99 % 0.00 in
03:51 42.4 °F 42.1 °F 29.92 in WNW 2.6 mph 4.0 mph 99 % 0.00 in
03:56 42.4 °F 42.1 °F 29.92 in WNW 2.0 mph 3.5 mph 99 % 0.00 in
04:01 42.5 °F 42.2 °F 29.92 in NW 1.3 mph 3.5 mph 99 % 0.00 in
04:06 42.5 °F 42.0 °F 29.93 in NW 0.8 mph 3.5 mph 98 % 0.00 in
04:11 42.5 °F 42.2 °F 29.93 in NW 0.7 mph 2.3 mph 99 % 0.00 in
04:13 42.6 °F 42.3 °F 29.93 in NW 0.4 mph 2.3 mph 99 % 0.00 in
04:18 42.6 °F 42.3 °F 29.93 in NW 0.4 mph 1.2 mph 99 % 0.00 in
04:23 42.6 °F 42.3 °F 29.93 in NW 0.3 mph 1.2 mph 99 % 0.00 in
04:28 42.7 °F 42.4 °F 29.93 in NW 1.3 mph 2.3 mph 99 % 0.00 in
04:33 42.7 °F 42.4 °F 29.93 in WNW 0.1 mph   99 % 0.00 in
04:38 42.8 °F 42.5 °F 29.94 in WNW 1.3 mph 3.5 mph 99 % 0.00 in
04:43 42.8 °F 42.5 °F 29.94 in NW 2.3 mph 3.5 mph 99 % 0.00 in
04:48 42.9 °F 42.6 °F 29.94 in NW 0.7 mph 4.6 mph 99 % 0.00 in
04:53 43.0 °F 42.7 °F 29.94 in WNW 1.8 mph 3.5 mph 99 % 0.00 in
04:59 43.1 °F 42.8 °F 29.94 in NW 3.0 mph 6.0 mph 99 % 0.00 in
05:04 43.1 °F 42.8 °F 29.94 in WNW 1.9 mph 5.8 mph 99 % 0.00 in
05:09 43.2 °F 42.9 °F 29.95 in NW 1.5 mph 6.9 mph 99 % 0.00 in
05:14 43.2 °F 42.9 °F 29.94 in WNW 1.7 mph 5.8 mph 99 % 0.00 in
05:19 43.2 °F 42.9 °F 29.94 in NW 3.0 mph 4.6 mph 99 % 0.00 in
05:24 43.2 °F 42.9 °F 29.95 in NNW 3.9 mph 8.1 mph 99 % 0.00 in
05:29 43.0 °F 42.7 °F 29.95 in North 3.4 mph 6.9 mph 99 % 0.00 in
05:34 42.8 °F 42.5 °F 29.96 in NW 1.7 mph 3.5 mph 99 % 0.00 in
05:39 42.6 °F 42.3 °F 29.95 in North 2.1 mph 4.0 mph 99 % 0.00 in
05:44 42.4 °F 41.9 °F 29.95 in NW 2.7 mph 4.6 mph 98 % 0.00 in
05:49 42.3 °F 41.8 °F 29.96 in North 2.8 mph 6.0 mph 98 % 0.00 in
05:54 42.2 °F 41.9 °F 29.96 in NW 2.9 mph 4.6 mph 99 % 0.00 in
05:59 42.2 °F 41.7 °F 29.96 in WNW 2.9 mph 4.6 mph 98 % 0.00 in
06:04 42.1 °F 41.6 °F 29.96 in NNW 5.3 mph 11.0 mph 98 % 0.00 in
06:09 42.0 °F 41.5 °F 29.97 in NW 4.6 mph 6.9 mph 98 % 0.00 in
06:14 42.0 °F 41.5 °F 29.96 in WNW 3.1 mph 5.8 mph 98 % 0.00 in
06:19 42.0 °F 41.5 °F 29.96 in NW 2.7 mph 9.2 mph 98 % 0.00 in
06:24 41.9 °F 41.4 °F 29.97 in NNW 2.2 mph 5.8 mph 98 % 0.00 in
06:29 41.9 °F 41.4 °F 29.97 in NNW 4.6 mph 9.2 mph 98 % 0.00 in
06:34 41.8 °F 41.3 °F 29.98 in NNW 2.2 mph 9.2 mph 98 % 0.00 in
06:40 41.8 °F 41.3 °F 29.98 in NW 3.8 mph 7.0 mph 98 % 0.00 in
06:45 41.8 °F 41.3 °F 29.99 in NW 2.5 mph 5.0 mph 98 % 0.00 in
06:50 41.8 °F 41.3 °F 29.99 in NNE 3.1 mph 6.9 mph 98 % 0.00 in
06:55 41.8 °F 41.3 °F 29.99 in NNE 4.3 mph 7.0 mph 98 % 0.00 in
07:00 41.8 °F 41.0 °F 29.98 in NNE 2.1 mph 3.5 mph 97 % 0.00 in
07:05 41.8 °F 41.0 °F 29.99 in North 2.3 mph 3.5 mph 97 % 0.00 in
07:10 41.8 °F 41.0 °F 29.99 in North 4.5 mph 8.1 mph 97 % 0.00 in
07:15 41.9 °F 41.1 °F 29.99 in North 1.5 mph 6.9 mph 97 % 0.00 in
07:20 42.0 °F 40.9 °F 29.99 in NNW 1.9 mph 4.6 mph 96 % 0.00 in
07:25 42.0 °F 40.9 °F 30.00 in North 2.4 mph 7.0 mph 96 % 0.00 in
07:30 42.1 °F 41.0 °F 30.00 in NNW 1.1 mph 3.5 mph 96 % 0.00 in
07:35 42.1 °F 40.8 °F 30.01 in NW 0.7 mph 3.0 mph 95 % 0.00 in
07:40 42.2 °F 40.9 °F 30.00 in NNW 1.1 mph 5.0 mph 95 % 0.00 in
07:45 42.4 °F 41.1 °F 30.01 in NW 2.1 mph 4.6 mph 95 % 0.00 in
07:50 42.6 °F 41.3 °F 30.00 in NW 2.9 mph 5.8 mph 95 % 0.00 in
07:55 42.9 °F 41.3 °F 30.00 in NNW 1.2 mph 4.6 mph 94 % 0.00 in
08:00 43.1 °F 41.2 °F 30.01 in NW 3.5 mph 6.9 mph 93 % 0.00 in
08:03 43.3 °F 41.4 °F 30.01 in North 2.3 mph 5.8 mph 93 % 0.00 in
08:08 43.6 °F 41.4 °F 30.01 in NW 2.1 mph 4.6 mph 92 % 0.00 in
08:13 43.8 °F 41.3 °F 30.01 in NNW 3.4 mph 4.6 mph 91 % 0.00 in
08:18 44.0 °F 41.3 °F 30.01 in NNE 3.1 mph 5.8 mph 90 % 0.00 in
08:23 44.2 °F 41.5 °F 30.01 in North 3.1 mph 8.1 mph 90 % 0.00 in
08:28 44.4 °F 41.4 °F 30.01 in North 1.8 mph 3.5 mph 89 % 0.00 in
08:33 44.4 °F 41.4 °F 30.01 in NNW 3.3 mph 5.8 mph 89 % 0.00 in
08:38 44.6 °F 41.6 °F 30.02 in North 0.8 mph 8.1 mph 89 % 0.00 in
08:43 44.7 °F 41.4 °F 30.01 in North 2.9 mph 3.5 mph 88 % 0.00 in
08:48 45.2 °F 42.2 °F 30.01 in North 3.2 mph 6.9 mph 89 % 0.00 in
08:53 45.6 °F 42.0 °F 30.01 in NNW 3.6 mph 6.0 mph 87 % 0.00 in
08:58 46.0 °F 42.3 °F 30.01 in NE 3.9 mph 5.0 mph 87 % 0.00 in
09:03 46.5 °F 42.2 °F 30.01 in North 4.1 mph 6.0 mph 85 % 0.00 in
09:08 46.6 °F 41.7 °F 30.02 in North 4.7 mph 6.9 mph 83 % 0.00 in
09:13 46.6 °F 41.7 °F 30.02 in NNE 4.6 mph 6.9 mph 83 % 0.00 in
09:18 46.4 °F 41.2 °F 30.03 in NNE 4.2 mph 10.4 mph 82 % 0.00 in
09:23 46.3 °F 41.1 °F 30.03 in North 4.8 mph 11.5 mph 82 % 0.00 in
09:28 46.0 °F 40.5 °F 30.03 in NE 7.7 mph 13.8 mph 81 % 0.00 in
09:33 45.8 °F 40.0 °F 30.03 in North 6.3 mph 11.5 mph 80 % 0.00 in
09:39 45.6 °F 40.1 °F 30.03 in NNW 6.6 mph 11.0 mph 81 % 0.00 in
09:44 45.5 °F 40.0 °F 30.03 in NNW 5.7 mph 10.4 mph 81 % 0.00 in
09:49 45.4 °F 39.9 °F 30.02 in NNW 5.5 mph 9.2 mph 81 % 0.00 in
09:54 45.5 °F 40.3 °F 30.03 in North 5.5 mph 8.1 mph 82 % 0.00 in
09:59 45.6 °F 40.4 °F 30.03 in NNE 2.6 mph 5.8 mph 82 % 0.00 in
10:04 45.6 °F 40.1 °F 30.03 in NW 3.9 mph 11.5 mph 81 % 0.00 in
10:09 45.7 °F 40.2 °F 30.03 in NW 2.0 mph 5.8 mph 81 % 0.00 in
10:14 45.9 °F 40.4 °F 30.03 in NW 3.8 mph 5.8 mph 81 % 0.00 in
10:19 46.1 °F 40.6 °F 30.03 in NW 5.8 mph 8.1 mph 81 % 0.00 in
10:24 46.2 °F 40.4 °F 30.03 in North 6.5 mph 11.5 mph 80 % 0.00 in
10:29 46.7 °F 41.2 °F 30.04 in NW 5.4 mph 8.0 mph 81 % 0.00 in
10:34 46.9 °F 40.7 °F 30.04 in WNW 4.8 mph 7.0 mph 79 % 0.00 in
10:35 47.0 °F 40.8 °F 30.04 in NNW 4.8 mph 6.9 mph 79 % 0.00 in
10:40 47.5 °F 41.6 °F 30.04 in NNW 1.4 mph 4.6 mph 80 % 0.00 in
10:45 47.8 °F 40.9 °F 30.04 in NNW 3.4 mph 6.9 mph 77 % 0.00 in
10:50 48.0 °F 41.1 °F 30.04 in NNW 5.6 mph 9.2 mph 77 % 0.00 in
10:55 48.4 °F 42.2 °F 30.04 in NNW 4.3 mph 11.0 mph 79 % 0.00 in
11:00 48.8 °F 41.2 °F 30.04 in NNW 5.9 mph 11.5 mph 75 % 0.00 in
11:05 49.1 °F 42.2 °F 30.04 in NNW 5.3 mph 6.9 mph 77 % 0.00 in
11:10 49.4 °F 41.5 °F 30.04 in NNW 4.7 mph 9.2 mph 74 % 0.00 in
11:16 49.6 °F 41.7 °F 30.04 in WNW 4.9 mph 10.4 mph 74 % 0.00 in
11:21 49.9 °F 42.3 °F 30.05 in NW 4.0 mph 5.8 mph 75 % 0.00 in
11:26 50.0 °F 41.7 °F 30.05 in NW 4.3 mph 9.2 mph 73 % 0.00 in
11:31 50.2 °F 42.2 °F 30.05 in NNW 5.5 mph 8.1 mph 74 % 0.00 in
11:33 50.3 °F 42.0 °F 30.05 in WNW 2.2 mph 4.6 mph 73 % 0.00 in
11:38 50.6 °F 41.2 °F 30.04 in NNW 7.0 mph 11.5 mph 70 % 0.00 in
11:43 50.8 °F 42.1 °F 30.03 in North 6.0 mph 15.0 mph 72 % 0.00 in
11:48 50.9 °F 41.8 °F 30.04 in NW 3.2 mph 5.8 mph 71 % 0.00 in
11:53 51.3 °F 42.9 °F 30.03 in NW 4.2 mph 8.1 mph 73 % 0.00 in
11:58 51.4 °F 41.9 °F 30.04 in NNW 7.1 mph 11.5 mph 70 % 0.00 in
12:03 51.4 °F 42.7 °F 30.04 in WNW 4.4 mph 7.0 mph 72 % 0.00 in
12:08 51.8 °F 42.3 °F 30.04 in WNW 3.2 mph 4.6 mph 70 % 0.00 in
12:13 52.1 °F 43.0 °F 30.03 in NNE 4.1 mph 6.0 mph 71 % 0.00 in
12:18 52.3 °F 41.3 °F 30.03 in North 7.7 mph 10.4 mph 66 % 0.00 in
12:23 52.3 °F 41.7 °F 30.03 in NNW 6.8 mph 12.7 mph 67 % 0.00 in
12:28 52.4 °F 42.1 °F 30.03 in NNW 5.9 mph 8.1 mph 68 % 0.00 in
12:33 52.8 °F 41.7 °F 30.03 in NE 5.7 mph 9.2 mph 66 % 0.00 in
12:38 53.1 °F 42.0 °F 30.03 in NE 7.1 mph 9.2 mph 66 % 0.00 in
12:44 53.5 °F 42.4 °F 30.03 in NNW 5.7 mph 9.2 mph 66 % 0.00 in
12:49 53.9 °F 42.8 °F 30.03 in NNE 6.0 mph 10.0 mph 66 % 0.00 in
12:54 54.0 °F 42.1 °F 30.02 in NE 6.7 mph 8.1 mph 64 % 0.00 in
12:59 54.4 °F 42.9 °F 30.03 in NE 4.5 mph 8.1 mph 65 % 0.00 in
13:04 54.6 °F 42.7 °F 30.02 in NNE 4.9 mph 6.9 mph 64 % 0.00 in
13:09 54.9 °F 42.9 °F 30.02 in North 4.3 mph 6.0 mph 64 % 0.00 in
13:14 55.3 °F 43.3 °F 30.02 in North 3.5 mph 5.0 mph 64 % 0.00 in
13:19 55.4 °F 41.7 °F 30.02 in North 2.8 mph 3.5 mph 60 % 0.00 in
13:24 55.8 °F 43.0 °F 30.02 in NE 4.3 mph 5.8 mph 62 % 0.00 in
13:29 55.8 °F 42.1 °F 30.02 in NNW 3.6 mph 4.6 mph 60 % 0.00 in
13:34 55.9 °F 43.1 °F 30.02 in NE 2.2 mph 4.6 mph 62 % 0.00 in
13:39 56.2 °F 42.9 °F 30.02 in NE 2.0 mph 3.5 mph 61 % 0.00 in
13:44 55.7 °F 41.6 °F 30.02 in NE 3.4 mph 8.1 mph 59 % 0.00 in
13:49 55.5 °F 41.8 °F 30.02 in NE 3.9 mph 4.0 mph 60 % 0.00 in
13:52 55.5 °F 42.7 °F 30.02 in NE 2.4 mph 4.0 mph 62 % 0.00 in
13:57 55.4 °F 42.6 °F 30.02 in North 5.7 mph 9.2 mph 62 % 0.00 in
14:02 55.5 °F 42.3 °F 30.02 in ENE 3.3 mph 4.6 mph 61 % 0.00 in
14:07 55.8 °F 41.7 °F 30.02 in NE 4.0 mph 6.9 mph 59 % 0.00 in
14:12 55.9 °F 41.8 °F 30.02 in NNE 3.0 mph 8.1 mph 59 % 0.00 in
14:17 56.2 °F 42.9 °F 30.02 in NNE 1.5 mph 3.5 mph 61 % 0.00 in
14:22 56.4 °F 43.1 °F 30.02 in ENE 2.1 mph 4.6 mph 61 % 0.00 in
14:27 55.5 °F 41.8 °F 30.01 in ENE 2.0 mph 3.5 mph 60 % 0.00 in
14:32 54.8 °F 41.2 °F 30.01 in ENE 2.5 mph 4.6 mph 60 % 0.00 in
14:37 54.9 °F 42.5 °F 30.01 in NNE 3.4 mph 5.8 mph 63 % 0.00 in
14:42 54.5 °F 40.9 °F 30.01 in North 1.7 mph 4.6 mph 60 % 0.00 in
14:47 54.2 °F 41.9 °F 30.01 in ENE 2.2 mph 5.0 mph 63 % 0.00 in
14:52 54.3 °F 42.0 °F 30.00 in NE 3.2 mph 4.6 mph 63 % 0.00 in
14:57 54.4 °F 41.6 °F 30.00 in ENE 1.6 mph 3.5 mph 62 % 0.00 in
15:02 54.2 °F 41.5 °F 30.00 in East 4.7 mph 8.1 mph 62 % 0.00 in
15:07 54.0 °F 42.5 °F 30.00 in NE 1.7 mph 4.0 mph 65 % 0.00 in
15:12 54.2 °F 41.9 °F 30.00 in ENE 1.9 mph 3.5 mph 63 % 0.00 in
15:17 54.2 °F 41.9 °F 30.00 in NE 2.4 mph 4.6 mph 63 % 0.00 in
15:22 54.1 °F 41.4 °F 30.00 in ENE 2.1 mph 3.5 mph 62 % 0.00 in
15:27 54.0 °F 41.7 °F 30.00 in ENE 2.0 mph 4.6 mph 63 % 0.00 in
15:32 54.1 °F 41.8 °F 30.00 in NE 3.6 mph 4.6 mph 63 % 0.00 in
15:37 54.2 °F 42.3 °F 30.00 in NNE 3.6 mph 5.8 mph 64 % 0.00 in
15:42 54.6 °F 42.3 °F 30.00 in NNE 2.0 mph 5.0 mph 63 % 0.00 in
15:47 54.7 °F 41.9 °F 30.00 in NE 2.0 mph 4.0 mph 62 % 0.00 in
15:52 54.8 °F 42.0 °F 30.00 in NNE 3.0 mph 6.0 mph 62 % 0.00 in
15:57 55.0 °F 41.4 °F 30.00 in ENE 1.7 mph 4.6 mph 60 % 0.00 in
16:03 54.6 °F 41.0 °F 30.00 in ENE 3.9 mph 6.9 mph 60 % 0.00 in
16:08 54.3 °F 40.7 °F 30.00 in North 2.5 mph 3.5 mph 60 % 0.00 in
16:13 54.3 °F 40.7 °F 30.00 in NNE 2.6 mph 4.6 mph 60 % 0.00 in
16:18 54.2 °F 39.7 °F 30.00 in North 4.9 mph 9.2 mph 58 % 0.00 in
16:23 54.4 °F 39.5 °F 30.00 in NNE 4.6 mph 10.4 mph 57 % 0.00 in
16:28 54.6 °F 39.7 °F 30.00 in NE 5.4 mph 11.0 mph 57 % 0.00 in
16:33 54.8 °F 39.4 °F 30.00 in NNE 6.3 mph 8.1 mph 56 % 0.00 in
16:38 54.9 °F 39.9 °F 30.00 in North 4.6 mph 6.9 mph 57 % 0.00 in
16:43 54.9 °F 39.9 °F 30.00 in North 6.4 mph 11.5 mph 57 % 0.00 in
16:48 54.7 °F 39.3 °F 30.00 in NE 7.3 mph 11.5 mph 56 % 0.00 in
16:53 54.5 °F 39.6 °F 30.00 in NE 6.0 mph 11.5 mph 57 % 0.00 in
16:58 54.4 °F 38.1 °F 30.00 in North 6.7 mph 11.5 mph 54 % 0.00 in
17:03 54.4 °F 38.1 °F 30.00 in North 6.9 mph 11.5 mph 54 % 0.00 in
17:08 54.3 °F 38.0 °F 30.00 in NNE 6.4 mph 9.2 mph 54 % 0.00 in
17:13 54.2 °F 37.9 °F 30.01 in NE 8.6 mph 12.0 mph 54 % 0.00 in
17:18 53.9 °F 37.6 °F 30.02 in NNE 6.7 mph 11.5 mph 54 % 0.00 in
17:23 53.6 °F 37.8 °F 30.02 in NE 8.2 mph 11.5 mph 55 % 0.00 in
17:28 53.1 °F 37.8 °F 30.02 in NNE 5.8 mph 9.2 mph 56 % 0.00 in
17:33 52.3 °F 37.1 °F 30.03 in NE 6.2 mph 11.5 mph 56 % 0.00 in
17:38 51.6 °F 36.9 °F 30.03 in NNE 8.3 mph 13.8 mph 57 % 0.00 in
17:43 51.3 °F 36.6 °F 30.03 in NNE 5.2 mph 10.4 mph 57 % 0.00 in
17:48 51.0 °F 36.7 °F 30.03 in NNW 6.2 mph 9.2 mph 58 % 0.00 in
17:53 50.6 °F 36.8 °F 30.04 in NE 5.5 mph 11.5 mph 59 % 0.00 in
17:58 50.3 °F 36.9 °F 30.04 in North 6.4 mph 9.2 mph 60 % 0.00 in
18:03 49.9 °F 36.6 °F 30.04 in NNE 6.7 mph 11.5 mph 60 % 0.00 in
18:08 49.6 °F 35.0 °F 30.05 in North 8.0 mph 13.8 mph 57 % 0.00 in
18:13 49.5 °F 35.8 °F 30.05 in NNE 7.8 mph 12.7 mph 59 % 0.00 in
18:19 49.3 °F 35.6 °F 30.05 in North 6.4 mph 10.4 mph 59 % 0.00 in
18:24 49.1 °F 35.8 °F 30.05 in North 6.3 mph 10.4 mph 60 % 0.00 in
18:29 48.8 °F 35.1 °F 30.06 in North 8.7 mph 13.8 mph 59 % 0.00 in
18:34 48.6 °F 35.3 °F 30.07 in North 4.3 mph 8.1 mph 60 % 0.00 in
18:39 48.3 °F 35.5 °F 30.07 in NNW 6.0 mph 8.1 mph 61 % 0.00 in
18:44 47.9 °F 35.5 °F 30.07 in North 7.1 mph 11.0 mph 62 % 0.00 in
18:50 47.6 °F 34.8 °F 30.07 in NNE 6.8 mph 11.5 mph 61 % 0.00 in
18:55 47.3 °F 34.9 °F 30.08 in North 4.6 mph 15.0 mph 62 % 0.00 in
19:00 47.1 °F 34.3 °F 30.08 in NNW 7.5 mph 11.5 mph 61 % 0.00 in
19:05 46.9 °F 35.0 °F 30.08 in NE 5.8 mph 10.4 mph 63 % 0.00 in
19:10 46.6 °F 35.1 °F 30.08 in North 5.1 mph 6.9 mph 64 % 0.00 in
19:15 46.3 °F 35.2 °F 30.09 in North 5.5 mph 8.1 mph 65 % 0.00 in
19:20 46.1 °F 35.0 °F 30.09 in NNW 2.2 mph 6.9 mph 65 % 0.00 in
19:25 45.8 °F 35.1 °F 30.09 in North 4.9 mph 7.0 mph 66 % 0.00 in
19:30 45.5 °F 34.8 °F 30.09 in NW 2.9 mph 5.0 mph 66 % 0.00 in
19:35 45.2 °F 34.5 °F 30.09 in NNE 6.9 mph 10.4 mph 66 % 0.00 in
19:40 45.0 °F 34.3 °F 30.10 in NNE 5.2 mph 9.0 mph 66 % 0.00 in
19:45 44.9 °F 33.5 °F 30.10 in North 6.0 mph 10.4 mph 64 % 0.00 in
19:50 44.8 °F 33.7 °F 30.10 in NNE 5.7 mph 8.1 mph 65 % 0.00 in
19:55 44.7 °F 33.6 °F 30.11 in NNE 4.0 mph 9.2 mph 65 % 0.00 in
20:00 44.6 °F 33.6 °F 30.11 in NNE 4.3 mph 8.1 mph 65 % 0.00 in
20:05 44.5 °F 33.5 °F 30.11 in NNW 3.4 mph 6.9 mph 65 % 0.00 in
20:10 44.5 °F 33.5 °F 30.12 in NNE 3.3 mph 6.9 mph 65 % 0.00 in
20:15 44.4 °F 33.4 °F 30.12 in North 5.4 mph 10.4 mph 65 % 0.00 in
20:20 44.4 °F 32.2 °F 30.13 in North 5.7 mph 10.4 mph 62 % 0.00 in
20:25 44.6 °F 31.1 °F 30.13 in NNE 6.4 mph 10.0 mph 59 % 0.00 in
20:30 44.7 °F 32.1 °F 30.13 in North 5.7 mph 8.1 mph 61 % 0.00 in
20:35 44.8 °F 32.6 °F 30.13 in NNW 6.3 mph 10.0 mph 62 % 0.00 in
20:40 44.7 °F 32.5 °F 30.14 in North 6.1 mph 11.5 mph 62 % 0.00 in
20:45 44.7 °F 32.1 °F 30.14 in North 5.4 mph 9.2 mph 61 % 0.00 in
20:50 44.7 °F 31.7 °F 30.14 in North 7.8 mph 11.5 mph 60 % 0.00 in
20:55 44.8 °F 31.3 °F 30.15 in NNE 5.7 mph 10.4 mph 59 % 0.00 in
21:00 44.7 °F 32.1 °F 30.14 in NNE 3.9 mph 6.9 mph 61 % 0.00 in
21:05 44.6 °F 32.0 °F 30.15 in North 8.2 mph 10.0 mph 61 % 0.00 in
21:10 44.5 °F 32.3 °F 30.15 in North 7.0 mph 9.2 mph 62 % 0.00 in
21:15 44.5 °F 31.9 °F 30.15 in North 3.6 mph 9.2 mph 61 % 0.00 in
21:20 44.3 °F 32.1 °F 30.16 in North 5.1 mph 9.0 mph 62 % 0.00 in
21:25 44.2 °F 31.6 °F 30.16 in North 5.4 mph 6.0 mph 61 % 0.00 in
21:30 44.1 °F 31.9 °F 30.17 in NW 4.4 mph 9.2 mph 62 % 0.00 in
21:35 44.0 °F 31.4 °F 30.17 in North 6.2 mph 9.2 mph 61 % 0.00 in
21:40 43.9 °F 31.3 °F 30.17 in North 7.7 mph 16.1 mph 61 % 0.00 in
21:45 43.8 °F 31.2 °F 30.17 in NNE 6.2 mph 11.5 mph 61 % 0.00 in
21:50 43.7 °F 31.1 °F 30.17 in NNE 7.9 mph 11.5 mph 61 % 0.00 in
21:55 43.6 °F 31.4 °F 30.18 in NNE 4.5 mph 9.2 mph 62 % 0.00 in
22:00 43.5 °F 31.3 °F 30.17 in NNE 7.1 mph 11.5 mph 62 % 0.00 in
22:05 43.4 °F 31.6 °F 30.17 in North 5.3 mph 8.1 mph 63 % 0.00 in
22:10 43.3 °F 31.5 °F 30.18 in NE 5.6 mph 6.9 mph 63 % 0.00 in
22:15 43.1 °F 31.4 °F 30.19 in NW 3.8 mph 10.4 mph 63 % 0.00 in
22:20 43.0 °F 31.3 °F 30.19 in NNE 5.9 mph 8.1 mph 63 % 0.00 in
22:25 42.9 °F 31.6 °F 30.19 in NNE 4.2 mph 9.2 mph 64 % 0.00 in
22:30 42.8 °F 31.8 °F 30.19 in NNE 3.2 mph 6.0 mph 65 % 0.00 in
22:35 42.6 °F 31.3 °F 30.19 in North 5.0 mph 10.4 mph 64 % 0.00 in
22:40 42.4 °F 31.5 °F 30.19 in North 4.2 mph 9.2 mph 65 % 0.00 in
22:46 42.3 °F 31.4 °F 30.19 in NNE 4.2 mph 8.1 mph 65 % 0.00 in
22:51 42.2 °F 31.6 °F 30.19 in NNW 5.1 mph 10.4 mph 66 % 0.00 in
22:56 42.0 °F 30.3 °F 30.19 in NW 8.6 mph 12.7 mph 63 % 0.00 in
23:01 42.1 °F 29.6 °F 30.19 in North 6.2 mph 10.4 mph 61 % 0.00 in
23:06 42.2 °F 30.5 °F 30.20 in NNW 6.6 mph 11.5 mph 63 % 0.00 in
23:11 42.1 °F 30.4 °F 30.20 in NNE 4.0 mph 7.0 mph 63 % 0.00 in
23:16 42.1 °F 30.0 °F 30.20 in NNE 5.3 mph 6.9 mph 62 % 0.00 in
23:21 42.0 °F 29.9 °F 30.20 in North 9.4 mph 13.8 mph 62 % 0.00 in
23:26 42.0 °F 30.3 °F 30.20 in North 5.6 mph 9.2 mph 63 % 0.00 in
23:31 41.9 °F 30.6 °F 30.20 in NNE 3.6 mph 6.9 mph 64 % 0.00 in
23:36 41.7 °F 30.4 °F 30.19 in NNW 6.8 mph 9.2 mph 64 % 0.00 in
23:41 41.6 °F 30.7 °F 30.20 in NNE 6.7 mph 9.2 mph 65 % 0.00 in
23:46 41.5 °F 31.0 °F 30.20 in NE 5.6 mph 10.4 mph 66 % 0.00 in
23:51 41.4 °F 31.6 °F 30.21 in NNE 5.8 mph 10.4 mph 68 % 0.00 in
23:56 41.2 °F 31.4 °F 30.20 in NNE 6.0 mph 8.1 mph 68 % 0.00 in
Crab Meadow Weather
Compliments of Weather Underground - 3 mb

Script developed by  Jim McMurry - jmcmurry@mwt.net Adapted for the template by  Wim van der Kuil - Leuven-Template.eu

Astronomy: Our moon is moving away from the earth at about 3cm per year.